sensor_id;sensor_type;location;lat;lon;timestamp;pressure;altitude;pressure_sealevel;temperature;humidity
54262;BME280;40174;52.364;6.452;2023-03-12T00:01:09;100933.41;;;-0.78;100.00
54262;BME280;40174;52.364;6.452;2023-03-12T00:03:36;100935.09;;;-0.77;100.00
54262;BME280;40174;52.364;6.452;2023-03-12T00:06:03;100923.91;;;-0.79;100.00
54262;BME280;40174;52.364;6.452;2023-03-12T00:08:36;100929.94;;;-0.79;100.00
54262;BME280;40174;52.364;6.452;2023-03-12T00:11:07;100926.50;;;-0.79;100.00
54262;BME280;40174;52.364;6.452;2023-03-12T00:13:34;100919.69;;;-0.82;100.00
54262;BME280;40174;52.364;6.452;2023-03-12T00:16:05;100916.31;;;-0.86;100.00
54262;BME280;40174;52.364;6.452;2023-03-12T00:18:32;100913.78;;;-0.87;100.00
54262;BME280;40174;52.364;6.452;2023-03-12T00:20:59;100906.06;;;-0.90;100.00
54262;BME280;40174;52.364;6.452;2023-03-12T00:23:26;100916.47;;;-0.90;100.00
54262;BME280;40174;52.364;6.452;2023-03-12T00:25:58;100912.22;;;-0.93;100.00
54262;BME280;40174;52.364;6.452;2023-03-12T00:28:25;100913.13;;;-0.94;100.00
54262;BME280;40174;52.364;6.452;2023-03-12T00:30:52;100911.56;;;-0.99;100.00
54262;BME280;40174;52.364;6.452;2023-03-12T00:33:18;100911.59;;;-1.01;100.00
54262;BME280;40174;52.364;6.452;2023-03-12T00:35:45;100902.09;;;-1.00;100.00
54262;BME280;40174;52.364;6.452;2023-03-12T00:38:11;100905.56;;;-1.01;100.00
54262;BME280;40174;52.364;6.452;2023-03-12T00:40:38;100895.28;;;-1.05;100.00
54262;BME280;40174;52.364;6.452;2023-03-12T00:43:06;100899.69;;;-1.07;100.00
54262;BME280;40174;52.364;6.452;2023-03-12T00:45:33;100905.81;;;-1.09;100.00
54262;BME280;40174;52.364;6.452;2023-03-12T00:47:59;100902.31;;;-1.08;100.00
54262;BME280;40174;52.364;6.452;2023-03-12T00:50:26;100893.72;;;-1.10;100.00
54262;BME280;40174;52.364;6.452;2023-03-12T00:52:52;100889.47;;;-1.13;100.00
54262;BME280;40174;52.364;6.452;2023-03-12T00:55:19;100891.34;;;-1.16;100.00
54262;BME280;40174;52.364;6.452;2023-03-12T00:57:46;100888.75;;;-1.16;100.00
54262;BME280;40174;52.364;6.452;2023-03-12T01:00:15;100875.81;;;-1.18;100.00
54262;BME280;40174;52.364;6.452;2023-03-12T01:02:41;100880.25;;;-1.21;100.00
54262;BME280;40174;52.364;6.452;2023-03-12T01:05:10;100874.16;;;-1.20;100.00
54262;BME280;40174;52.364;6.452;2023-03-12T01:07:37;100873.22;;;-1.18;100.00
54262;BME280;40174;52.364;6.452;2023-03-12T01:10:04;100863.78;;;-1.20;100.00
54262;BME280;40174;52.364;6.452;2023-03-12T01:12:31;100868.16;;;-1.21;100.00
54262;BME280;40174;52.364;6.452;2023-03-12T01:14:58;100862.09;;;-1.21;100.00
54262;BME280;40174;52.364;6.452;2023-03-12T01:17:26;100867.28;;;-1.21;100.00
54262;BME280;40174;52.364;6.452;2023-03-12T01:19:52;100865.59;;;-1.22;100.00
54262;BME280;40174;52.364;6.452;2023-03-12T01:22:19;100869.06;;;-1.23;100.00
54262;BME280;40174;52.364;6.452;2023-03-12T01:24:46;100862.16;;;-1.23;100.00
54262;BME280;40174;52.364;6.452;2023-03-12T01:27:12;100866.38;;;-1.20;100.00
54262;BME280;40174;52.364;6.452;2023-03-12T01:29:39;100862.88;;;-1.19;100.00
54262;BME280;40174;52.364;6.452;2023-03-12T01:32:06;100862.00;;;-1.18;100.00
54262;BME280;40174;52.364;6.452;2023-03-12T01:34:34;100852.50;;;-1.19;100.00
54262;BME280;40174;52.364;6.452;2023-03-12T01:37:01;100858.47;;;-1.16;100.00
54262;BME280;40174;52.364;6.452;2023-03-12T01:39:27;100854.22;;;-1.18;100.00
54262;BME280;40174;52.364;6.452;2023-03-12T01:41:54;100857.63;;;-1.16;100.00
54262;BME280;40174;52.364;6.452;2023-03-12T01:44:21;100857.50;;;-1.13;100.00
54262;BME280;40174;52.364;6.452;2023-03-12T01:46:47;100859.19;;;-1.12;100.00
54262;BME280;40174;52.364;6.452;2023-03-12T01:49:23;100850.56;;;-1.13;100.00
54262;BME280;40174;52.364;6.452;2023-03-12T01:51:55;100843.63;;;-1.12;100.00
54262;BME280;40174;52.364;6.452;2023-03-12T01:54:30;100841.81;;;-1.09;100.00
54262;BME280;40174;52.364;6.452;2023-03-12T01:56:59;100843.44;;;-1.06;100.00
54262;BME280;40174;52.364;6.452;2023-03-12T01:59:30;100835.72;;;-1.08;100.00
54262;BME280;40174;52.364;6.452;2023-03-12T02:01:58;100846.09;;;-1.08;100.00
54262;BME280;40174;52.364;6.452;2023-03-12T02:04:26;100844.34;;;-1.07;100.00
54262;BME280;40174;52.364;6.452;2023-03-12T02:07:00;100833.91;;;-1.06;100.00
54262;BME280;40174;52.364;6.452;2023-03-12T02:09:29;100825.28;;;-1.06;100.00
54262;BME280;40174;52.364;6.452;2023-03-12T02:11:56;100829.59;;;-1.05;100.00
54262;BME280;40174;52.364;6.452;2023-03-12T02:14:24;100826.19;;;-1.07;100.00
54262;BME280;40174;52.364;6.452;2023-03-12T02:16:52;100830.47;;;-1.06;100.00
54262;BME280;40174;52.364;6.452;2023-03-12T02:19:24;100809.72;;;-1.06;100.00
54262;BME280;40174;52.364;6.452;2023-03-12T02:21:56;100814.84;;;-1.03;100.00
54262;BME280;40174;52.364;6.452;2023-03-12T02:24:29;100813.97;;;-1.03;100.00
54262;BME280;40174;52.364;6.452;2023-03-12T02:27:00;100806.94;;;-1.00;100.00
54262;BME280;40174;52.364;6.452;2023-03-12T02:29:28;100808.69;;;-1.00;100.00
54262;BME280;40174;52.364;6.452;2023-03-12T02:31:58;100806.94;;;-1.00;100.00
54262;BME280;40174;52.364;6.452;2023-03-12T02:34:25;100802.63;;;-1.01;100.00
54262;BME280;40174;52.364;6.452;2023-03-12T02:41:15;100793.84;;;-0.97;100.00
54262;BME280;40174;52.364;6.452;2023-03-12T02:43:46;100780.00;;;-0.96;100.00
54262;BME280;40174;52.364;6.452;2023-03-12T02:46:15;100779.91;;;-0.94;100.00
54262;BME280;40174;52.364;6.452;2023-03-12T02:48:42;100784.22;;;-0.93;100.00
54262;BME280;40174;52.364;6.452;2023-03-12T02:51:09;100783.31;;;-0.92;100.00
54262;BME280;40174;52.364;6.452;2023-03-12T02:53:36;100784.19;;;-0.92;100.00
54262;BME280;40174;52.364;6.452;2023-03-12T02:56:03;100783.31;;;-0.92;100.00
54262;BME280;40174;52.364;6.452;2023-03-12T02:58:30;100771.22;;;-0.92;100.00
54262;BME280;40174;52.364;6.452;2023-03-12T03:00:58;100771.94;;;-0.88;100.00
54262;BME280;40174;52.364;6.452;2023-03-12T03:03:25;100770.97;;;-0.86;100.00
54262;BME280;40174;52.364;6.452;2023-03-12T03:05:52;100760.69;;;-0.87;100.00
54262;BME280;40174;52.364;6.452;2023-03-12T03:08:19;100760.59;;;-0.86;100.00
54262;BME280;40174;52.364;6.452;2023-03-12T03:10:45;100751.94;;;-0.85;100.00
54262;BME280;40174;52.364;6.452;2023-03-12T03:13:12;100744.06;;;-0.83;100.00
54262;BME280;40174;52.364;6.452;2023-03-12T03:15:39;100747.63;;;-0.86;100.00
54262;BME280;40174;52.364;6.452;2023-03-12T03:18:07;100740.72;;;-0.85;100.00
54262;BME280;40174;52.364;6.452;2023-03-12T03:20:33;100736.44;;;-0.88;100.00
54262;BME280;40174;52.364;6.452;2023-03-12T03:23:00;100732.13;;;-0.87;100.00
54262;BME280;40174;52.364;6.452;2023-03-12T03:25:26;100735.59;;;-0.88;100.00
54262;BME280;40174;52.364;6.452;2023-03-12T03:27:53;100735.59;;;-0.88;100.00
54262;BME280;40174;52.364;6.452;2023-03-12T03:30:20;100726.06;;;-0.88;100.00
54262;BME280;40174;52.364;6.452;2023-03-12T03:32:49;100713.06;;;-0.86;100.00
54262;BME280;40174;52.364;6.452;2023-03-12T03:35:18;100724.28;;;-0.86;100.00
54262;BME280;40174;52.364;6.452;2023-03-12T03:37:46;100719.16;;;-0.87;100.00
54262;BME280;40174;52.364;6.452;2023-03-12T03:40:13;100731.25;;;-0.88;100.00
54262;BME280;40174;52.364;6.452;2023-03-12T03:42:39;100725.31;;;-0.90;100.00
54262;BME280;40174;52.364;6.452;2023-03-12T03:45:08;100719.25;;;-0.90;100.00
54262;BME280;40174;52.364;6.452;2023-03-12T03:47:36;100728.91;;;-0.94;100.00
54262;BME280;40174;52.364;6.452;2023-03-12T03:50:04;100716.81;;;-0.95;100.00
54262;BME280;40174;52.364;6.452;2023-03-12T03:52:33;100721.19;;;-0.97;100.00
54262;BME280;40174;52.364;6.452;2023-03-12T03:55:00;100724.72;;;-0.98;100.00
54262;BME280;40174;52.364;6.452;2023-03-12T03:57:27;100728.25;;;-1.00;100.00
54262;BME280;40174;52.364;6.452;2023-03-12T03:59:55;100723.13;;;-1.02;100.00
54262;BME280;40174;52.364;6.452;2023-03-12T04:02:24;100713.66;;;-1.03;100.00
54262;BME280;40174;52.364;6.452;2023-03-12T04:04:50;100702.41;;;-1.03;100.00
54262;BME280;40174;52.364;6.452;2023-03-12T04:07:18;100702.34;;;-1.02;100.00
54262;BME280;40174;52.364;6.452;2023-03-12T04:09:47;100688.44;;;-0.99;100.00
54262;BME280;40174;52.364;6.452;2023-03-12T04:12:13;100686.59;;;-0.96;100.00
54262;BME280;40174;52.364;6.452;2023-03-12T04:14:41;100681.28;;;-0.93;100.00
54262;BME280;40174;52.364;6.452;2023-03-12T04:17:09;100674.41;;;-0.94;100.00
54262;BME280;40174;52.364;6.452;2023-03-12T04:19:35;100677.00;;;-0.94;100.00
54262;BME280;40174;52.364;6.452;2023-03-12T04:22:04;100675.25;;;-0.93;100.00
54262;BME280;40174;52.364;6.452;2023-03-12T04:24:33;100670.81;;;-0.90;100.00
54262;BME280;40174;52.364;6.452;2023-03-12T04:27:01;100662.91;;;-0.87;100.00
54262;BME280;40174;52.364;6.452;2023-03-12T04:29:28;100656.78;;;-0.86;100.00
54262;BME280;40174;52.364;6.452;2023-03-12T04:31:55;100661.09;;;-0.85;100.00
54262;BME280;40174;52.364;6.452;2023-03-12T04:34:22;100667.94;;;-0.82;100.00
54262;BME280;40174;52.364;6.452;2023-03-12T04:36:50;100661.03;;;-0.83;100.00
54262;BME280;40174;52.364;6.452;2023-03-12T04:39:17;100653.94;;;-0.78;100.00
54262;BME280;40174;52.364;6.452;2023-03-12T04:41:46;100648.69;;;-0.76;100.00
54262;BME280;40174;52.364;6.452;2023-03-12T04:44:15;100648.63;;;-0.75;100.00
54262;BME280;40174;52.364;6.452;2023-03-12T04:46:43;100636.44;;;-0.73;100.00
54262;BME280;40174;52.364;6.452;2023-03-12T04:49:13;100628.53;;;-0.70;100.00
54262;BME280;40174;52.364;6.452;2023-03-12T04:51:40;100626.81;;;-0.69;100.00
54262;BME280;40174;52.364;6.452;2023-03-12T04:54:07;100621.66;;;-0.71;100.00
54262;BME280;40174;52.364;6.452;2023-03-12T04:56:35;100618.91;;;-0.66;100.00
54262;BME280;40174;52.364;6.452;2023-03-12T04:59:02;100615.38;;;-0.65;100.00
54262;BME280;40174;52.364;6.452;2023-03-12T05:01:32;100609.25;;;-0.63;100.00
54262;BME280;40174;52.364;6.452;2023-03-12T05:04:03;100611.78;;;-0.61;100.00
54262;BME280;40174;52.364;6.452;2023-03-12T05:06:30;100608.22;;;-0.58;100.00
54262;BME280;40174;52.364;6.452;2023-03-12T05:08:57;100610.66;;;-0.54;100.00
54262;BME280;40174;52.364;6.452;2023-03-12T05:11:24;100617.50;;;-0.51;100.00
54262;BME280;40174;52.364;6.452;2023-03-12T05:13:50;100629.50;;;-0.49;100.00
54262;BME280;40174;52.364;6.452;2023-03-12T05:16:17;100614.78;;;-0.48;100.00
54262;BME280;40174;52.364;6.452;2023-03-12T05:18:45;100604.34;;;-0.47;100.00
54262;BME280;40174;52.364;6.452;2023-03-12T05:21:14;100606.00;;;-0.46;100.00
54262;BME280;40174;52.364;6.452;2023-03-12T05:23:41;100601.75;;;-0.47;100.00
54262;BME280;40174;52.364;6.452;2023-03-12T05:26:17;100606.06;;;-0.47;100.00
54262;BME280;40174;52.364;6.452;2023-03-12T05:28:44;100606.84;;;-0.45;100.00
54262;BME280;40174;52.364;6.452;2023-03-12T05:31:11;100611.03;;;-0.41;100.00
54262;BME280;40174;52.364;6.452;2023-03-12T05:33:38;100606.69;;;-0.40;100.00
54262;BME280;40174;52.364;6.452;2023-03-12T05:36:09;100603.19;;;-0.39;100.00
54262;BME280;40174;52.364;6.452;2023-03-12T05:38:36;100591.00;;;-0.37;100.00
54262;BME280;40174;52.364;6.452;2023-03-12T05:41:03;100584.97;;;-0.38;100.00
54262;BME280;40174;52.364;6.452;2023-03-12T05:43:32;100590.03;;;-0.35;100.00
54262;BME280;40174;52.364;6.452;2023-03-12T05:46:01;100575.34;;;-0.36;100.00
54262;BME280;40174;52.364;6.452;2023-03-12T05:48:29;100573.47;;;-0.32;100.00
54262;BME280;40174;52.364;6.452;2023-03-12T05:50:56;100580.38;;;-0.31;100.00
54262;BME280;40174;52.364;6.452;2023-03-12T05:53:24;100590.69;;;-0.30;100.00
54262;BME280;40174;52.364;6.452;2023-03-12T05:55:52;100588.91;;;-0.29;100.00
54262;BME280;40174;52.364;6.452;2023-03-12T05:58:19;100578.44;;;-0.26;100.00
54262;BME280;40174;52.364;6.452;2023-03-12T06:00:45;100582.59;;;-0.22;100.00
54262;BME280;40174;52.364;6.452;2023-03-12T06:03:13;100571.44;;;-0.24;100.00
54262;BME280;40174;52.364;6.452;2023-03-12T06:05:40;100573.91;;;-0.21;100.00
54262;BME280;40174;52.364;6.452;2023-03-12T06:08:09;100580.00;;;-0.22;100.00
54262;BME280;40174;52.364;6.452;2023-03-12T06:10:39;100570.41;;;-0.20;100.00
54262;BME280;40174;52.364;6.452;2023-03-12T06:13:06;100569.50;;;-0.19;100.00
54262;BME280;40174;52.364;6.452;2023-03-12T06:15:33;100569.44;;;-0.17;100.00
54262;BME280;40174;52.364;6.452;2023-03-12T06:18:02;100563.44;;;-0.19;100.00
54262;BME280;40174;52.364;6.452;2023-03-12T06:20:28;100562.47;;;-0.17;100.00
54262;BME280;40174;52.364;6.452;2023-03-12T06:22:55;100559.88;;;-0.17;100.00
54262;BME280;40174;52.364;6.452;2023-03-12T06:25:22;100561.50;;;-0.14;100.00
54262;BME280;40174;52.364;6.452;2023-03-12T06:27:50;100557.22;;;-0.15;100.00
54262;BME280;40174;52.364;6.452;2023-03-12T06:30:17;100566.66;;;-0.13;100.00
54262;BME280;40174;52.364;6.452;2023-03-12T06:32:43;100570.03;;;-0.11;100.00
54262;BME280;40174;52.364;6.452;2023-03-12T06:35:10;100573.47;;;-0.10;100.00
54262;BME280;40174;52.364;6.452;2023-03-12T06:37:36;100575.16;;;-0.09;100.00
54262;BME280;40174;52.364;6.452;2023-03-12T06:40:04;100559.47;;;-0.06;100.00
54262;BME280;40174;52.364;6.452;2023-03-12T06:42:34;100554.13;;;-0.03;100.00
54262;BME280;40174;52.364;6.452;2023-03-12T06:45:02;100541.91;;;-0.01;100.00
54262;BME280;40174;52.364;6.452;2023-03-12T06:47:29;100540.84;;;0.05;100.00
54262;BME280;40174;52.364;6.452;2023-03-12T06:49:55;100539.91;;;0.06;100.00
54262;BME280;40174;52.364;6.452;2023-03-12T06:52:22;100532.06;;;0.07;100.00
54262;BME280;40174;52.364;6.452;2023-03-12T06:54:49;100533.69;;;0.10;100.00
54262;BME280;40174;52.364;6.452;2023-03-12T06:57:15;100533.50;;;0.14;100.00
54262;BME280;40174;52.364;6.452;2023-03-12T06:59:42;100529.91;;;0.17;100.00
54262;BME280;40174;52.364;6.452;2023-03-12T07:02:10;100532.47;;;0.18;100.00
54262;BME280;40174;52.364;6.452;2023-03-12T07:04:37;100519.38;;;0.20;100.00
54262;BME280;40174;52.364;6.452;2023-03-12T07:07:03;100529.66;;;0.23;100.00
54262;BME280;40174;52.364;6.452;2023-03-12T07:09:32;100515.06;;;0.20;100.00
54262;BME280;40174;52.364;6.452;2023-03-12T07:11:59;100523.50;;;0.26;100.00
54262;BME280;40174;52.364;6.452;2023-03-12T07:14:26;100527.72;;;0.28;100.00
54262;BME280;40174;52.364;6.452;2023-03-12T07:16:52;100522.56;;;0.27;100.00
54262;BME280;40174;52.364;6.452;2023-03-12T07:19:21;100523.28;;;0.30;100.00
54262;BME280;40174;52.364;6.452;2023-03-12T07:21:48;100521.63;;;0.29;100.00
54262;BME280;40174;52.364;6.452;2023-03-12T07:24:14;100522.50;;;0.28;100.00
54262;BME280;40174;52.364;6.452;2023-03-12T07:26:41;100517.25;;;0.30;100.00
54262;BME280;40174;52.364;6.452;2023-03-12T07:29:08;100515.25;;;0.36;100.00
54262;BME280;40174;52.364;6.452;2023-03-12T07:31:34;100509.09;;;0.37;100.00
54262;BME280;40174;52.364;6.452;2023-03-12T07:34:01;100514.47;;;0.34;100.00
54262;BME280;40174;52.364;6.452;2023-03-12T07:36:31;100505.72;;;0.35;100.00
54262;BME280;40174;52.364;6.452;2023-03-12T07:38:58;100497.81;;;0.38;100.00
54262;BME280;40174;52.364;6.452;2023-03-12T07:41:25;100496.13;;;0.37;100.00
54262;BME280;40174;52.364;6.452;2023-03-12T07:43:51;100493.31;;;0.42;100.00
54262;BME280;40174;52.364;6.452;2023-03-12T07:46:18;100479.63;;;0.38;100.00
54262;BME280;40174;52.364;6.452;2023-03-12T07:48:44;100488.31;;;0.37;100.00
54262;BME280;40174;52.364;6.452;2023-03-12T07:51:11;100476.88;;;0.41;100.00
54262;BME280;40174;52.364;6.452;2023-03-12T07:53:39;100466.31;;;0.45;100.00
54262;BME280;40174;52.364;6.452;2023-03-12T07:56:06;100454.03;;;0.48;100.00
54262;BME280;40174;52.364;6.452;2023-03-12T07:58:33;100456.66;;;0.48;100.00
54262;BME280;40174;52.364;6.452;2023-03-12T08:01:01;100455.66;;;0.51;100.00
54262;BME280;40174;52.364;6.452;2023-03-12T08:03:27;100452.00;;;0.55;100.00
54262;BME280;40174;52.364;6.452;2023-03-12T08:05:56;100463.81;;;0.62;100.00
54262;BME280;40174;52.364;6.452;2023-03-12T08:08:23;100463.03;;;0.60;100.00
54262;BME280;40174;52.364;6.452;2023-03-12T08:10:52;100467.22;;;0.64;100.00
54262;BME280;40174;52.364;6.452;2023-03-12T08:13:19;100461.16;;;0.64;100.00
54262;BME280;40174;52.364;6.452;2023-03-12T08:15:48;100480.22;;;0.64;100.00
54262;BME280;40174;52.364;6.452;2023-03-12T08:18:14;100472.34;;;0.66;100.00
54262;BME280;40174;52.364;6.452;2023-03-12T08:20:41;100468.03;;;0.65;100.00
54262;BME280;40174;52.364;6.452;2023-03-12T08:23:08;100469.66;;;0.67;100.00
54262;BME280;40174;52.364;6.452;2023-03-12T08:25:34;100463.41;;;0.71;100.00
54262;BME280;40174;52.364;6.452;2023-03-12T08:28:03;100480.78;;;0.71;100.00
54262;BME280;40174;52.364;6.452;2023-03-12T08:30:30;100467.63;;;0.74;100.00
54262;BME280;40174;52.364;6.452;2023-03-12T08:32:57;100490.91;;;0.77;100.00
54262;BME280;40174;52.364;6.452;2023-03-12T08:35:23;100480.56;;;0.75;100.00
54262;BME280;40174;52.364;6.452;2023-03-12T08:37:50;100484.72;;;0.79;100.00
54262;BME280;40174;52.364;6.452;2023-03-12T08:40:17;100481.19;;;0.80;100.00
54262;BME280;40174;52.364;6.452;2023-03-12T08:42:43;100474.25;;;0.81;100.00
54262;BME280;40174;52.364;6.452;2023-03-12T08:45:12;100481.19;;;0.80;100.00
54262;BME280;40174;52.364;6.452;2023-03-12T08:50:15;100474.25;;;0.81;100.00
54262;BME280;40174;52.364;6.452;2023-03-12T08:52:43;100471.72;;;0.79;100.00
54262;BME280;40174;52.364;6.452;2023-03-12T09:08:45;100453.09;;;0.89;100.00
54262;BME280;40174;52.364;6.452;2023-03-12T09:11:13;100444.16;;;0.94;100.00
54262;BME280;40174;52.364;6.452;2023-03-12T09:13:42;100451.97;;;0.94;100.00
54262;BME280;40174;52.364;6.452;2023-03-12T09:16:09;100443.22;;;0.95;100.00
54262;BME280;40174;52.364;6.452;2023-03-12T09:18:35;100436.97;;;0.99;100.00
54262;BME280;40174;52.364;6.452;2023-03-12T09:21:02;100432.59;;;1.00;100.00
54262;BME280;40174;52.364;6.452;2023-03-12T09:23:29;100432.47;;;1.03;100.00
54262;BME280;40174;52.364;6.452;2023-03-12T09:25:57;100424.38;;;1.09;100.00
54262;BME280;40174;52.364;6.452;2023-03-12T09:28:23;100421.91;;;1.06;100.00
54262;BME280;40174;52.364;6.452;2023-03-12T09:30:50;100419.22;;;1.08;100.00
54262;BME280;40174;52.364;6.452;2023-03-12T09:33:16;100425.69;;;1.18;100.00
54262;BME280;40174;52.364;6.452;2023-03-12T09:35:43;100433.56;;;1.16;100.00
54262;BME280;40174;52.364;6.452;2023-03-12T09:38:12;100432.50;;;1.20;100.00
54262;BME280;40174;52.364;6.452;2023-03-12T09:40:44;100436.03;;;1.19;100.00
54262;BME280;40174;52.364;6.452;2023-03-12T09:43:18;100434.34;;;1.18;100.00
54262;BME280;40174;52.364;6.452;2023-03-12T09:45:47;100441.03;;;1.24;100.00
54262;BME280;40174;52.364;6.452;2023-03-12T09:48:16;100437.44;;;1.27;100.00
54262;BME280;40174;52.364;6.452;2023-03-12T09:50:46;100445.03;;;1.31;100.00
54262;BME280;40174;52.364;6.452;2023-03-12T09:53:20;100438.88;;;1.32;100.00
54262;BME280;40174;52.364;6.452;2023-03-12T09:55:52;100443.75;;;1.40;100.00
54262;BME280;40174;52.364;6.452;2023-03-12T09:58:25;100437.38;;;1.45;100.00
54262;BME280;40174;52.364;6.452;2023-03-12T10:00:58;100436.94;;;1.55;100.00
54262;BME280;40174;52.364;6.452;2023-03-12T10:03:40;100430.81;;;1.56;100.00
54262;BME280;40174;52.364;6.452;2023-03-12T10:06:15;100429.81;;;1.58;100.00
54262;BME280;40174;52.364;6.452;2023-03-12T10:08:56;100426.91;;;1.64;100.00
54262;BME280;40174;52.364;6.452;2023-03-12T10:11:31;100425.69;;;1.72;100.00
54262;BME280;40174;52.364;6.452;2023-03-12T10:14:14;100422.69;;;1.79;100.00
54262;BME280;40174;52.364;6.452;2023-03-12T10:16:50;100429.44;;;1.83;100.00
54262;BME280;40174;52.364;6.452;2023-03-12T10:19:40;100427.69;;;1.84;100.00
54262;BME280;40174;52.364;6.452;2023-03-12T10:22:18;100416.25;;;1.86;100.00
54262;BME280;40174;52.364;6.452;2023-03-12T10:25:00;100419.41;;;1.93;100.00
54262;BME280;40174;52.364;6.452;2023-03-12T10:27:33;100419.53;;;1.90;100.00
54262;BME280;40174;52.364;6.452;2023-03-12T10:30:04;100422.69;;;1.97;100.00
54262;BME280;40174;52.364;6.452;2023-03-12T10:32:40;100413.63;;;2.04;100.00
54262;BME280;40174;52.364;6.452;2023-03-12T10:35:14;100421.44;;;2.04;100.00
54262;BME280;40174;52.364;6.452;2023-03-12T10:37:43;100425.19;;;2.16;100.00
54262;BME280;40174;52.364;6.452;2023-03-12T10:40:14;100418.97;;;2.18;100.00
54262;BME280;40174;52.364;6.452;2023-03-12T10:42:40;100421.41;;;2.21;100.00
54262;BME280;40174;52.364;6.452;2023-03-12T10:45:18;100410.84;;;2.24;100.00
54262;BME280;40174;52.364;6.452;2023-03-12T10:47:49;100411.69;;;2.25;100.00
54262;BME280;40174;52.364;6.452;2023-03-12T10:50:19;100409.84;;;2.27;100.00
54262;BME280;40174;52.364;6.452;2023-03-12T10:52:48;100409.34;;;2.36;100.00
54262;BME280;40174;52.364;6.452;2023-03-12T10:55:21;100402.03;;;2.43;100.00
54262;BME280;40174;52.364;6.452;2023-03-12T10:57:49;100411.66;;;2.58;100.00
54262;BME280;40174;52.364;6.452;2023-03-12T11:00:22;100396.00;;;2.58;100.00
54262;BME280;40174;52.364;6.452;2023-03-12T11:02:58;100396.66;;;2.62;100.00
54262;BME280;40174;52.364;6.452;2023-03-12T11:05:27;100400.22;;;2.61;100.00
54262;BME280;40174;52.364;6.452;2023-03-12T11:07:54;100406.19;;;2.63;100.00
54262;BME280;40174;52.364;6.452;2023-03-12T11:10:23;100404.34;;;2.65;100.00
54262;BME280;40174;52.364;6.452;2023-03-12T11:12:54;100403.22;;;2.69;100.00
54262;BME280;40174;52.364;6.452;2023-03-12T11:15:24;100398.00;;;2.69;100.00
54262;BME280;40174;52.364;6.452;2023-03-12T11:17:51;100396.09;;;2.73;100.00
54262;BME280;40174;52.364;6.452;2023-03-12T11:20:24;100407.38;;;2.73;100.00
54262;BME280;40174;52.364;6.452;2023-03-12T11:22:51;100409.41;;;2.84;100.00
54262;BME280;40174;52.364;6.452;2023-03-12T11:25:23;100393.47;;;2.88;100.00
54262;BME280;40174;52.364;6.452;2023-03-12T11:27:52;100404.50;;;2.94;100.00
54262;BME280;40174;52.364;6.452;2023-03-12T11:30:25;100409.56;;;2.97;100.00
54262;BME280;40174;52.364;6.452;2023-03-12T11:32:54;100401.31;;;3.04;100.00
54262;BME280;40174;52.364;6.452;2023-03-12T11:35:32;100405.16;;;3.13;100.00
54262;BME280;40174;52.364;6.452;2023-03-12T11:38:09;100400.72;;;3.15;100.00
54262;BME280;40174;52.364;6.452;2023-03-12T11:40:55;100396.31;;;3.16;100.00
54262;BME280;40174;52.364;6.452;2023-03-12T11:43:39;100399.16;;;3.27;100.00
54262;BME280;40174;52.364;6.452;2023-03-12T11:46:19;100398.16;;;3.29;100.00
54262;BME280;40174;52.364;6.452;2023-03-12T11:48:55;100392.75;;;3.32;100.00
54262;BME280;40174;52.364;6.452;2023-03-12T11:51:32;100389.13;;;3.35;100.00
54262;BME280;40174;52.364;6.452;2023-03-12T11:57:03;100397.38;;;3.73;100.00
54262;BME280;40174;52.364;6.452;2023-03-12T11:59:44;100388.41;;;3.78;100.00
54262;BME280;40174;52.364;6.452;2023-03-12T12:02:27;100406.72;;;3.92;100.00
54262;BME280;40174;52.364;6.452;2023-03-12T12:05:09;100400.84;;;3.88;100.00
54262;BME280;40174;52.364;6.452;2023-03-12T12:07:53;100389.50;;;4.04;100.00
54262;BME280;40174;52.364;6.452;2023-03-12T12:10:26;100390.53;;;4.15;100.00
54262;BME280;40174;52.364;6.452;2023-03-12T12:13:05;100393.88;;;4.18;100.00
54262;BME280;40174;52.364;6.452;2023-03-12T12:15:42;100378.25;;;4.30;100.00
54262;BME280;40174;52.364;6.452;2023-03-12T12:18:39;100370.41;;;4.30;100.00
54262;BME280;40174;52.364;6.452;2023-03-12T12:21:24;100362.19;;;4.51;100.00
54262;BME280;40174;52.364;6.452;2023-03-12T12:23:58;100354.31;;;4.65;100.00
54262;BME280;40174;52.364;6.452;2023-03-12T12:26:32;100357.00;;;4.78;100.00
54262;BME280;40174;52.364;6.452;2023-03-12T12:29:14;100363.22;;;4.90;100.00
54262;BME280;40174;52.364;6.452;2023-03-12T12:31:48;100364.88;;;4.91;100.00
54262;BME280;40174;52.364;6.452;2023-03-12T12:37:17;100340.97;;;5.10;100.00
54262;BME280;40174;52.364;6.452;2023-03-12T12:42:24;100348.47;;;5.29;100.00
54262;BME280;40174;52.364;6.452;2023-03-12T12:44:54;100342.19;;;5.31;100.00
54262;BME280;40174;52.364;6.452;2023-03-12T12:47:31;100342.53;;;5.39;100.00
54262;BME280;40174;52.364;6.452;2023-03-12T12:50:02;100337.63;;;5.48;100.00
54262;BME280;40174;52.364;6.452;2023-03-12T12:52:29;100337.41;;;5.51;100.00
54262;BME280;40174;52.364;6.452;2023-03-12T12:54:59;100349.81;;;5.61;100.00
54262;BME280;40174;52.364;6.452;2023-03-12T12:57:35;100345.91;;;5.67;100.00
54262;BME280;40174;52.364;6.452;2023-03-12T13:00:31;100332.19;;;5.76;100.00
54262;BME280;40174;52.364;6.452;2023-03-12T13:03:02;100331.66;;;5.84;100.00
54262;BME280;40174;52.364;6.452;2023-03-12T13:05:45;100332.81;;;5.80;100.00
54262;BME280;40174;52.364;6.452;2023-03-12T13:11:26;100326.75;;;5.92;100.00
54262;BME280;40174;52.364;6.452;2023-03-12T13:14:33;100330.56;;;6.01;100.00
54262;BME280;40174;52.364;6.452;2023-03-12T13:17:20;100329.38;;;6.05;100.00
54262;BME280;40174;52.364;6.452;2023-03-12T13:19:49;100337.25;;;6.18;100.00
54262;BME280;40174;52.364;6.452;2023-03-12T13:22:26;100338.81;;;6.20;100.00
54262;BME280;40174;52.364;6.452;2023-03-12T13:25:03;100344.59;;;6.26;100.00
54262;BME280;40174;52.364;6.452;2023-03-12T13:27:37;100351.41;;;6.28;100.00
54262;BME280;40174;52.364;6.452;2023-03-12T13:33:13;100336.25;;;6.44;100.00